Terminal Aerodrome Forecast
Issued by NWS Glasgow, MT

Home | Current Version | Previous Version | Text Only | Print | Product List | Glossary On
Versions: 1 2 3 4 5 6 7 8 9 10 11 12
000
FTUS45 KGGW 280521
TAFGGW
TAF
KGGW 280521Z 2806/2906 13008KT P6SM SCT100
     FM281200 VRB05KT P6SM SCT200
     FM281500 28008KT P6SM SCT200
     FM290000 32009KT P6SM BKN250
     FM290300 36007KT P6SM SCT200=

USA.gov is the U.S. government's official web portal to all federal, state and local government web resources and services.